createdAt,value
2023-04-11T00:04:59.063Z,100577.80
2023-04-11T00:10:07.424Z,100568.20
2023-04-11T00:15:11.150Z,100565.40
2023-04-11T00:20:14.952Z,100556.80
2023-04-11T00:25:18.423Z,100552.80
2023-04-11T00:30:21.918Z,100549.00
2023-04-11T00:35:25.159Z,100543.40
2023-04-11T00:40:31.408Z,100536.80
2023-04-11T00:45:35.074Z,100532.20
2023-04-11T00:50:43.319Z,100519.80
2023-04-11T00:55:47.107Z,100513.60
2023-04-11T01:00:51.790Z,100508.60
2023-04-11T01:05:55.895Z,100505.60
2023-04-11T01:10:58.978Z,100500.00
2023-04-11T01:16:06.207Z,100491.00
2023-04-11T01:21:09.899Z,100485.80
2023-04-11T01:26:12.880Z,100481.40
2023-04-11T01:31:19.304Z,100474.40
2023-04-11T01:36:27.110Z,100469.00
2023-04-11T01:41:34.682Z,100465.40
2023-04-11T01:46:38.020Z,100460.60
2023-04-11T01:51:44.840Z,100456.00
2023-04-11T01:56:48.431Z,100453.20
2023-04-11T02:01:51.663Z,100446.80
2023-04-11T02:06:54.984Z,100435.60
2023-04-11T02:12:00.575Z,100428.40
2023-04-11T02:17:05.023Z,100426.20
2023-04-11T02:22:11.392Z,100421.20
2023-04-11T02:27:17.176Z,100421.80
2023-04-11T02:32:20.482Z,100418.60
2023-04-11T02:37:23.985Z,100414.40
2023-04-11T02:42:27.037Z,100406.00
2023-04-11T02:47:30.472Z,100397.00
2023-04-11T02:52:37.725Z,100394.00
2023-04-11T02:57:41.139Z,100390.20
2023-04-11T03:02:44.023Z,100384.80
2023-04-11T03:07:47.108Z,100376.20
2023-04-11T03:12:50.255Z,100375.60
2023-04-11T03:18:02.409Z,100372.60
2023-04-11T03:23:05.716Z,100376.00
2023-04-11T03:28:08.614Z,100368.00
2023-04-11T03:33:11.603Z,100363.00
2023-04-11T03:38:15.126Z,100358.20
2023-04-11T03:43:18.408Z,100359.60
2023-04-11T03:48:21.613Z,100342.40
2023-04-11T03:53:24.749Z,100332.40
2023-04-11T03:58:27.658Z,100330.40
2023-04-11T04:03:30.809Z,100317.60
2023-04-11T04:08:34.301Z,100314.60
2023-04-11T04:13:37.254Z,100306.40
2023-04-11T04:18:40.285Z,100306.60
2023-04-11T04:23:53.027Z,100311.20
2023-04-11T04:28:57.641Z,100302.80
2023-04-11T04:34:08.924Z,100304.00
2023-04-11T04:39:19.607Z,100308.00
2023-04-11T04:44:22.592Z,100303.20
2023-04-11T04:49:25.587Z,100302.00
2023-04-11T04:54:28.839Z,100300.20
2023-04-11T04:59:32.567Z,100297.20
2023-04-11T05:04:37.005Z,100292.60
2023-04-11T05:09:40.969Z,100280.40
2023-04-11T05:14:47.893Z,100282.20
2023-04-11T05:19:51.638Z,100277.40
2023-04-11T05:25:02.659Z,100275.20
2023-04-11T05:30:20.647Z,100265.20
2023-04-11T05:35:30.608Z,100251.40
2023-04-11T05:40:34.543Z,100252.20
2023-04-11T05:45:39.893Z,100250.00
2023-04-11T05:50:42.940Z,100241.20
2023-04-11T05:55:46.006Z,100232.40
2023-04-11T06:00:51.240Z,100223.60
2023-04-11T06:06:08.024Z,100220.80
2023-04-11T06:11:16.229Z,100218.60
2023-04-11T06:16:20.553Z,100218.20
2023-04-11T06:21:27.811Z,100220.20
2023-04-11T06:26:30.786Z,100220.20
2023-04-11T06:31:34.521Z,100219.60
2023-04-11T06:36:43.595Z,100210.00
2023-04-11T06:41:48.105Z,100212.40
2023-04-11T06:46:52.160Z,100212.60
2023-04-11T06:51:59.488Z,100201.00
2023-04-11T06:57:03.637Z,100195.80
2023-04-11T07:02:08.042Z,100189.60
2023-04-11T07:07:12.082Z,100179.60
2023-04-11T07:12:15.183Z,100176.60
2023-04-11T07:17:18.415Z,100167.00
2023-04-11T07:22:21.950Z,100161.80
2023-04-11T07:27:25.262Z,100161.20
2023-04-11T07:32:29.138Z,100155.40
2023-04-11T07:37:32.814Z,100144.20
2023-04-11T07:42:35.709Z,100136.60
2023-04-11T07:47:39.347Z,100131.60
2023-04-11T07:52:43.315Z,100117.60
2023-04-11T07:57:48.342Z,100107.80
2023-04-11T08:02:52.575Z,100098.80
2023-04-11T08:07:57.288Z,100093.00
2023-04-11T08:13:01.074Z,100089.60
2023-04-11T08:18:04.909Z,100079.20
2023-04-11T08:23:13.413Z,100080.40
2023-04-11T08:28:17.555Z,100068.00
2023-04-11T08:33:26.650Z,100060.00
2023-04-11T08:38:30.036Z,100068.80
2023-04-11T08:43:44.313Z,100066.60
2023-04-11T08:48:48.279Z,100055.00
2023-04-11T08:53:54.644Z,100050.40
2023-04-11T08:58:59.595Z,100049.40
2023-04-11T09:04:05.708Z,100050.80
2023-04-11T09:09:42.091Z,100039.00
2023-04-11T09:14:50.635Z,100026.40
2023-04-11T09:20:22.499Z,100027.80
2023-04-11T09:25:43.603Z,100021.60
2023-04-11T09:30:58.300Z,100016.00
2023-04-11T09:36:19.909Z,100002.60
2023-04-11T09:41:39.592Z,100003.00
2023-04-11T09:47:00.261Z,99994.20
2023-04-11T09:52:04.448Z,99986.80
2023-04-11T09:57:09.505Z,99979.00
2023-04-11T10:02:12.751Z,99969.80
2023-04-11T10:07:19.388Z,99969.40
2023-04-11T10:12:33.451Z,99961.00
2023-04-11T10:17:37.656Z,99955.80
2023-04-11T10:22:42.028Z,99952.60
2023-04-11T10:27:49.951Z,99936.20
2023-04-11T10:33:20.007Z,99940.40
2023-04-11T10:38:41.823Z,99935.40
2023-04-11T10:43:47.854Z,99934.80
2023-04-11T10:49:05.561Z,99924.60
2023-04-11T10:54:26.221Z,99916.60
2023-04-11T10:59:32.445Z,99905.60
2023-04-11T11:04:39.800Z,99901.20
2023-04-11T11:09:51.505Z,99895.80
2023-04-11T11:14:55.483Z,99893.60
2023-04-11T11:19:58.629Z,99882.80
2023-04-11T11:25:09.355Z,99880.80
2023-04-11T11:30:16.880Z,99870.60
2023-04-11T11:35:20.258Z,99876.80
2023-04-11T11:40:27.505Z,99869.80
2023-04-11T11:45:33.050Z,99859.80
2023-04-11T11:50:36.208Z,99848.60
2023-04-11T11:55:40.548Z,99846.00
2023-04-11T12:00:52.328Z,99847.00
2023-04-11T12:05:58.527Z,99838.80
2023-04-11T12:11:02.898Z,99841.00
2023-04-11T12:16:14.174Z,99838.60
2023-04-11T12:21:20.804Z,99833.60
2023-04-11T12:26:25.470Z,99831.40
2023-04-11T12:31:28.508Z,99830.80
2023-04-11T12:36:33.847Z,99815.40
2023-04-11T12:41:44.428Z,99814.20
2023-04-11T12:46:48.295Z,99813.60
2023-04-11T12:51:53.148Z,99807.40
2023-04-11T12:56:58.393Z,99800.00
2023-04-11T13:02:02.289Z,99785.20
2023-04-11T13:07:07.730Z,99789.20
2023-04-11T13:12:12.211Z,99785.40
2023-04-11T13:17:15.459Z,99777.00
2023-04-11T13:22:18.420Z,99764.00
2023-04-11T13:27:22.219Z,99767.00
2023-04-11T13:32:25.290Z,99759.00
2023-04-11T13:37:28.306Z,99759.40
2023-04-11T13:42:31.937Z,99753.20
2023-04-11T13:47:36.931Z,99749.80
2023-04-11T13:52:41.729Z,99747.60
2023-04-11T13:57:44.917Z,99745.00
2023-04-11T14:02:49.753Z,99728.20
2023-04-11T14:07:54.245Z,99731.40
2023-04-11T14:12:57.261Z,99725.00
2023-04-11T14:18:00.262Z,99722.20
2023-04-11T14:23:03.329Z,99716.00
2023-04-11T14:28:06.544Z,99714.80
2023-04-11T14:33:09.791Z,99717.80
2023-04-11T14:38:15.030Z,99709.80
2023-04-11T14:43:18.097Z,99702.20
2023-04-11T14:48:21.133Z,99703.80
2023-04-11T14:53:25.275Z,99697.40
2023-04-11T14:58:32.079Z,99695.20
2023-04-11T15:03:35.366Z,99695.40
2023-04-11T15:08:39.916Z,99688.60
2023-04-11T15:13:42.860Z,99679.20
2023-04-11T15:18:54.120Z,99672.80
2023-04-11T15:23:57.682Z,99664.00
2023-04-11T15:29:00.842Z,99651.60
2023-04-11T15:34:04.262Z,99651.00
2023-04-11T15:39:07.282Z,99647.40
2023-04-11T15:44:10.922Z,99645.40
2023-04-11T15:49:13.824Z,99639.40
2023-04-11T15:54:16.844Z,99640.40
2023-04-11T15:59:19.767Z,99638.00
2023-04-11T16:04:22.751Z,99631.40
2023-04-11T16:09:26.428Z,99629.00
2023-04-11T16:14:29.579Z,99626.00
2023-04-11T16:19:32.676Z,99624.00
2023-04-11T16:24:35.858Z,99627.40
2023-04-11T16:29:39.286Z,99630.80
2023-04-11T16:34:42.380Z,99631.20
2023-04-11T16:39:45.426Z,99628.00
2023-04-11T16:44:48.680Z,99629.60
2023-04-11T16:49:53.586Z,99631.40
2023-04-11T16:54:56.513Z,99635.40
2023-04-11T16:59:59.651Z,99630.40
2023-04-11T17:05:02.698Z,99624.40
2023-04-11T17:10:07.100Z,99619.40
2023-04-11T17:15:11.264Z,99624.80
2023-04-11T17:20:15.010Z,99629.00
2023-04-11T17:25:17.967Z,99630.60
2023-04-11T17:30:21.371Z,99635.00
2023-04-11T17:35:25.010Z,99636.80
2023-04-11T17:40:28.481Z,99644.80
2023-04-11T17:45:32.225Z,99644.20
2023-04-11T17:50:35.276Z,99643.80
2023-04-11T17:55:39.836Z,99652.00
2023-04-11T18:00:54.838Z,99659.00
2023-04-11T18:05:59.977Z,99659.60
2023-04-11T18:11:04.466Z,99667.40
2023-04-11T18:16:08.277Z,99667.80
2023-04-11T18:21:11.378Z,99665.40
2023-04-11T18:26:14.284Z,99669.60
2023-04-11T18:31:17.212Z,99670.20
2023-04-11T18:36:21.273Z,99674.60
2023-04-11T18:41:25.189Z,99676.60
2023-04-11T18:46:28.374Z,99677.00
2023-04-11T18:51:32.288Z,99674.80
2023-04-11T18:56:36.968Z,99677.60
2023-04-11T19:01:43.815Z,99675.80
2023-04-11T19:06:46.783Z,99674.00
2023-04-11T19:11:49.641Z,99674.40
2023-04-11T19:16:53.245Z,99670.00
2023-04-11T19:21:57.251Z,99669.40
2023-04-11T19:27:00.156Z,99667.20
2023-04-11T19:32:04.495Z,99666.80
2023-04-11T19:37:08.434Z,99677.20
2023-04-11T19:42:12.673Z,99689.80
2023-04-11T19:47:15.727Z,99689.60
2023-04-11T19:52:19.131Z,99687.80
2023-04-11T19:57:26.984Z,99693.20
2023-04-11T20:02:29.993Z,99693.20
2023-04-11T20:07:33.855Z,99702.60
2023-04-11T20:12:36.789Z,99707.40
2023-04-11T20:17:39.893Z,99709.80
2023-04-11T20:22:45.124Z,99711.20
2023-04-11T20:27:48.127Z,99713.80
2023-04-11T20:32:55.001Z,99718.60
2023-04-11T20:37:58.309Z,99713.20
2023-04-11T20:43:02.130Z,99715.60
2023-04-11T20:48:06.400Z,99713.80
2023-04-11T20:53:09.429Z,99709.80
2023-04-11T20:58:17.079Z,99716.00
2023-04-11T21:03:21.326Z,99717.60
2023-04-11T21:08:24.562Z,99728.60
2023-04-11T21:13:27.486Z,99716.60
2023-04-11T21:18:30.521Z,99711.00
2023-04-11T21:23:33.412Z,99712.20
2023-04-11T21:28:36.403Z,99712.80
2023-04-11T21:33:39.505Z,99716.40
2023-04-11T21:38:42.395Z,99720.60
2023-04-11T21:43:45.377Z,99719.00
2023-04-11T21:48:49.594Z,99733.00
2023-04-11T21:53:53.837Z,99738.00
2023-04-11T21:58:56.761Z,99736.00
2023-04-11T22:03:59.877Z,99730.80
2023-04-11T22:09:05.607Z,99727.40
2023-04-11T22:14:08.647Z,99726.40
2023-04-11T22:19:11.776Z,99721.20
2023-04-11T22:24:15.052Z,99730.00
2023-04-11T22:29:18.435Z,99726.60
2023-04-11T22:34:21.426Z,99727.00
2023-04-11T22:39:25.577Z,99720.80
2023-04-11T22:44:28.461Z,99707.20
2023-04-11T22:49:32.379Z,99713.00
2023-04-11T22:54:35.645Z,99724.20
2023-04-11T22:59:38.465Z,99717.40
2023-04-11T23:04:41.736Z,99721.80
2023-04-11T23:09:44.963Z,99720.00
2023-04-11T23:14:50.389Z,99729.00
2023-04-11T23:19:53.234Z,99721.00
2023-04-11T23:24:56.095Z,99721.00
2023-04-11T23:30:00.217Z,99706.20
2023-04-11T23:35:05.226Z,99695.20
2023-04-11T23:40:14.148Z,99684.20
2023-04-11T23:45:20.610Z,99683.60
2023-04-11T23:50:23.627Z,99669.80
2023-04-11T23:55:26.810Z,99670.80
